L54 weather

Agua Caliente Airport
Agua Caliente Springs, California, United States

Public forecast

Using degrees Fahrenheit for public forecast. Weather courtesy of forecast.io.

Closest aviation weather report (METAR) to Agua Caliente Airport

Closest report is Ramona Airport, 31.8 nm (58.8 km) W. Retrieved 2019/12/10 17:53 UTC (35 minutes ago):

KRNM 101753Z 31003KT 10SM CLR 16/04 A3024 RMK AO2 SLP237 T01560044 10167 20022 53013

Closest aviation forecast (TAF) to Agua Caliente Airport

Forecast is more than 12 hours old.

Closest forecast is El Centro NAF Airport (Vraciu Field), 32.1 nm (59.5 km) ESE. Retrieved 2016/08/04 23:15 UTC (3 years ago):

TAF KNJK 032300Z 0323/0423 VRB06KT 9999 FEW080 FEW280 TEMPO 0323/0405 14010KT FM040600 VRB06KT FEW280 QNH2968INS AUTOMATED SENSOR METWATCH 0406 TIL 0413 TX41/0323Z TN28/0412Z FS30081